createdAt,value
2019-03-12T00:00:50.277Z,2.51
2019-03-12T00:03:19.856Z,2.49
2019-03-12T00:05:49.339Z,2.54
2019-03-12T00:08:18.896Z,2.53
2019-03-12T00:10:48.587Z,2.51
2019-03-12T00:13:18.051Z,2.53
2019-03-12T00:15:47.534Z,2.47
2019-03-12T00:18:17.057Z,2.61
2019-03-12T00:20:46.540Z,2.51
2019-03-12T00:23:16.107Z,2.47
2019-03-12T00:25:45.610Z,2.52
2019-03-12T00:28:15.082Z,2.52
2019-03-12T00:30:44.596Z,2.50
2019-03-12T00:33:14.078Z,2.48
2019-03-12T00:35:43.709Z,2.47
2019-03-12T00:38:13.272Z,2.55
2019-03-12T00:40:42.766Z,2.63
2019-03-12T00:43:12.255Z,2.65
2019-03-12T00:45:41.812Z,2.59
2019-03-12T00:48:12.294Z,2.64
2019-03-12T00:50:41.960Z,2.59
2019-03-12T00:53:11.458Z,2.53
2019-03-12T00:55:41.011Z,2.59
2019-03-12T00:58:10.509Z,2.60
2019-03-12T01:00:40.005Z,2.48
2019-03-12T01:03:09.639Z,2.49
2019-03-12T01:05:39.193Z,2.30
2019-03-12T01:08:08.713Z,2.21
2019-03-12T01:10:38.203Z,2.23
2019-03-12T01:13:18.358Z,2.18
2019-03-12T01:15:48.041Z,2.10
2019-03-12T01:18:17.521Z,2.25
2019-03-12T01:20:47.016Z,2.42
2019-03-12T01:23:16.579Z,2.66
2019-03-12T01:25:46.231Z,2.70
2019-03-12T01:28:15.702Z,2.88
2019-03-12T01:30:45.264Z,2.90
2019-03-12T01:33:14.854Z,2.90
2019-03-12T01:35:44.395Z,2.76
2019-03-12T01:38:14.036Z,2.74
2019-03-12T01:40:43.512Z,2.83
2019-03-12T01:43:13.064Z,2.72
2019-03-12T01:45:42.546Z,2.61
2019-03-12T01:48:12.054Z,2.64
2019-03-12T01:50:41.662Z,2.50
2019-03-12T01:53:11.140Z,2.49
2019-03-12T01:55:40.680Z,2.38
2019-03-12T01:58:10.191Z,2.47
2019-03-12T02:00:39.797Z,2.38
2019-03-12T02:03:09.359Z,2.32
2019-03-12T02:05:38.865Z,2.28
2019-03-12T02:08:08.366Z,2.16
2019-03-12T02:10:37.868Z,2.07
2019-03-12T02:13:07.511Z,2.05
2019-03-12T02:15:37.155Z,2.21
2019-03-12T02:18:06.639Z,2.31
2019-03-12T02:20:36.177Z,2.32
2019-03-12T02:23:05.827Z,2.44
2019-03-12T02:25:35.375Z,2.54
2019-03-12T02:28:05.394Z,2.52
2019-03-12T02:30:34.965Z,2.52
2019-03-12T02:33:04.515Z,2.51
2019-03-12T02:35:34.015Z,2.57
2019-03-12T02:38:03.593Z,2.65
2019-03-12T02:40:33.105Z,2.68
2019-03-12T02:43:02.615Z,2.75
2019-03-12T02:45:32.082Z,2.75
2019-03-12T02:48:01.567Z,2.83
2019-03-12T02:50:31.060Z,2.76
2019-03-12T02:53:00.615Z,2.81
2019-03-12T02:55:30.116Z,2.85
2019-03-12T02:57:59.609Z,3.00
2019-03-12T03:00:29.100Z,3.05
2019-03-12T03:02:58.605Z,2.91
2019-03-12T03:05:28.238Z,3.05
2019-03-12T03:08:11.450Z,3.21
2019-03-12T03:10:40.926Z,3.18
2019-03-12T03:13:10.444Z,3.21
2019-03-12T03:15:41.560Z,3.20
2019-03-12T03:18:11.053Z,3.26
2019-03-12T03:20:40.613Z,3.21
2019-03-12T03:23:10.096Z,3.20
2019-03-12T03:25:39.750Z,3.31
2019-03-12T03:28:09.311Z,3.32
2019-03-12T03:30:38.878Z,3.43
2019-03-12T03:33:08.452Z,3.46
2019-03-12T03:35:37.938Z,3.49
2019-03-12T03:38:07.490Z,3.63
2019-03-12T03:40:37.042Z,3.63
2019-03-12T03:43:06.668Z,3.55
2019-03-12T03:45:36.161Z,3.54
2019-03-12T03:48:05.854Z,3.48
2019-03-12T03:50:35.424Z,3.64
2019-03-12T03:53:04.908Z,3.66
2019-03-12T03:55:34.450Z,3.73
2019-03-12T03:58:03.956Z,3.74
2019-03-12T04:00:33.450Z,3.80
2019-03-12T04:03:02.930Z,3.99
2019-03-12T04:05:32.419Z,3.94
2019-03-12T04:08:02.092Z,4.01
2019-03-12T04:10:31.671Z,4.01
2019-03-12T04:13:01.157Z,4.01
2019-03-12T04:15:30.806Z,4.08
2019-03-12T04:18:00.363Z,4.05
2019-03-12T04:20:29.840Z,4.02
2019-03-12T04:22:59.323Z,4.14
2019-03-12T04:25:28.869Z,4.06
2019-03-12T04:28:00.013Z,3.99
2019-03-12T04:30:29.494Z,4.13
2019-03-12T04:32:59.016Z,4.20
2019-03-12T04:35:31.679Z,4.29
2019-03-12T04:38:01.146Z,4.31
2019-03-12T04:40:30.654Z,4.30
2019-03-12T04:43:00.136Z,4.38
2019-03-12T04:45:29.767Z,4.39
2019-03-12T04:47:59.248Z,4.42
2019-03-12T04:50:28.731Z,4.40
2019-03-12T04:52:58.277Z,4.35
2019-03-12T04:55:27.761Z,4.47
2019-03-12T04:57:57.289Z,4.39
2019-03-12T05:00:26.770Z,4.39
2019-03-12T05:02:56.257Z,4.45
2019-03-12T05:05:25.753Z,4.35
2019-03-12T05:07:55.271Z,4.25
2019-03-12T05:10:24.769Z,4.36
2019-03-12T05:12:54.240Z,4.34
2019-03-12T05:15:23.742Z,4.25
2019-03-12T05:17:53.225Z,4.31
2019-03-12T05:20:23.723Z,4.23
2019-03-12T05:22:53.206Z,4.53
2019-03-12T05:25:22.714Z,4.47
2019-03-12T05:27:52.195Z,4.55
2019-03-12T05:30:22.018Z,4.52
2019-03-12T05:32:51.520Z,4.62
2019-03-12T05:35:21.007Z,4.59
2019-03-12T05:37:50.609Z,4.58
2019-03-12T05:40:20.091Z,4.67
2019-03-12T05:42:49.578Z,4.58
2019-03-12T05:45:19.577Z,4.75
2019-03-12T05:47:49.060Z,4.84
2019-03-12T05:50:22.192Z,4.71
2019-03-12T05:52:51.701Z,4.88
2019-03-12T05:55:21.184Z,4.80
2019-03-12T05:57:50.679Z,4.85
2019-03-12T06:00:22.739Z,4.84
2019-03-12T06:02:52.195Z,4.76
2019-03-12T06:05:21.683Z,4.87
2019-03-12T06:07:51.189Z,4.81
2019-03-12T06:10:20.747Z,4.91
2019-03-12T06:12:50.277Z,4.89
2019-03-12T06:15:19.943Z,4.88
2019-03-12T06:17:49.408Z,5.09
2019-03-12T06:20:19.419Z,5.24
2019-03-12T06:22:48.861Z,5.36
2019-03-12T06:25:18.344Z,5.38
2019-03-12T06:27:47.859Z,5.61
2019-03-12T06:30:19.455Z,5.57
2019-03-12T06:32:57.623Z,5.60
2019-03-12T06:35:31.235Z,5.66
2019-03-12T06:38:12.113Z,5.57
2019-03-12T06:40:46.034Z,5.67
2019-03-12T06:43:19.669Z,5.80
2019-03-12T06:46:03.974Z,5.88
2019-03-12T06:48:44.085Z,5.84
2019-03-12T06:51:15.210Z,5.99
2019-03-12T06:53:46.345Z,5.97
2019-03-12T06:56:24.413Z,6.08
2019-03-12T06:59:02.587Z,6.14
2019-03-12T07:01:49.809Z,6.10
2019-03-12T07:04:20.918Z,6.23
2019-03-12T07:06:53.336Z,6.20
2019-03-12T07:09:28.392Z,6.33
2019-03-12T07:12:01.973Z,6.25
2019-03-12T07:14:35.982Z,6.25
2019-03-12T07:17:08.001Z,6.42
2019-03-12T07:19:37.292Z,6.33
2019-03-12T07:22:08.471Z,6.54
2019-03-12T07:24:39.593Z,6.43
2019-03-12T07:27:13.521Z,6.67
2019-03-12T07:29:42.840Z,6.84
2019-03-12T07:32:30.383Z,6.85
2019-03-12T07:35:08.440Z,6.76
2019-03-12T07:37:46.831Z,6.97
2019-03-12T07:40:16.100Z,7.13
2019-03-12T07:43:03.191Z,7.07
2019-03-12T07:45:36.995Z,7.09
2019-03-12T07:48:08.213Z,7.26
2019-03-12T07:50:42.473Z,7.12
2019-03-12T07:53:17.792Z,7.17
2019-03-12T07:56:04.762Z,7.18
2019-03-12T07:58:36.759Z,6.97
2019-03-12T08:01:09.066Z,7.14
2019-03-12T08:03:40.281Z,7.42
2019-03-12T08:06:27.655Z,7.56
2019-03-12T08:09:02.767Z,7.70
2019-03-12T08:11:33.894Z,7.57
2019-03-12T08:14:05.029Z,7.64
2019-03-12T08:16:51.477Z,7.83
2019-03-12T08:19:38.389Z,7.71
2019-03-12T08:22:07.719Z,8.03
2019-03-12T08:24:38.968Z,8.15
2019-03-12T08:27:26.277Z,8.34
2019-03-12T08:29:55.672Z,8.52
2019-03-12T08:32:32.606Z,8.17
2019-03-12T08:35:09.719Z,8.21
2019-03-12T08:37:56.603Z,8.21
2019-03-12T08:40:27.732Z,8.12
2019-03-12T08:43:04.646Z,8.13
2019-03-12T08:45:52.352Z,8.22
2019-03-12T08:48:27.559Z,8.21
2019-03-12T08:50:59.249Z,8.53
2019-03-12T08:53:42.436Z,8.61
2019-03-12T08:56:11.689Z,8.34
2019-03-12T08:59:01.236Z,8.57
2019-03-12T09:01:37.818Z,8.53
2019-03-12T09:04:24.287Z,9.04
2019-03-12T09:07:01.356Z,9.14
2019-03-12T09:09:44.343Z,9.07
2019-03-12T09:12:15.468Z,9.22
2019-03-12T09:14:52.569Z,9.55
2019-03-12T09:17:39.046Z,9.61
2019-03-12T09:20:12.434Z,9.56
2019-03-12T09:22:59.571Z,10.42
2019-03-12T09:25:42.350Z,10.16
2019-03-12T09:28:29.649Z,10.21
2019-03-12T09:31:16.920Z,10.11
2019-03-12T09:33:48.049Z,9.93
2019-03-12T09:36:29.794Z,10.26
2019-03-12T09:39:03.781Z,10.20
2019-03-12T09:41:37.662Z,10.18
2019-03-12T09:44:24.670Z,10.15
2019-03-12T09:47:07.808Z,10.51
2019-03-12T09:49:44.704Z,10.50
2019-03-12T09:52:21.715Z,10.21
2019-03-12T09:54:56.009Z,9.97
2019-03-12T09:57:33.119Z,9.61
2019-03-12T10:00:20.381Z,9.78
2019-03-12T10:02:51.513Z,9.72
2019-03-12T10:05:20.864Z,9.43
2019-03-12T10:07:59.154Z,9.88
2019-03-12T10:10:33.111Z,9.49
2019-03-12T10:13:16.490Z,9.56
2019-03-12T10:15:54.739Z,9.82
2019-03-12T10:18:29.994Z,9.85
2019-03-12T10:21:13.326Z,9.97
2019-03-12T10:23:53.409Z,9.82
2019-03-12T10:26:27.362Z,9.73
2019-03-12T10:28:59.653Z,10.02
2019-03-12T10:31:31.592Z,10.24
2019-03-12T10:34:03.611Z,10.25
2019-03-12T10:36:34.783Z,10.16
2019-03-12T10:42:58.599Z,10.53
2019-03-12T10:45:33.656Z,10.34
2019-03-12T10:48:07.275Z,10.68
2019-03-12T10:50:36.916Z,10.60
2019-03-12T10:53:06.557Z,10.54
2019-03-12T10:55:36.114Z,10.46
2019-03-12T10:58:05.803Z,10.58
2019-03-12T11:00:36.206Z,10.23
2019-03-12T11:03:05.873Z,10.73
2019-03-12T11:05:45.218Z,10.56
2019-03-12T11:08:07.050Z,10.64
2019-03-12T11:10:36.683Z,10.63
2019-03-12T11:13:06.356Z,11.03
2019-03-12T11:15:35.936Z,11.16
2019-03-12T11:18:05.868Z,11.42
2019-03-12T11:20:35.351Z,11.49
2019-03-12T11:23:04.979Z,11.04
2019-03-12T11:25:34.551Z,11.02
2019-03-12T11:28:04.102Z,10.97
2019-03-12T11:30:33.690Z,11.01
2019-03-12T11:33:03.301Z,11.26
2019-03-12T11:35:39.266Z,11.25
2019-03-12T11:38:04.241Z,11.39
2019-03-12T11:40:33.758Z,11.49
2019-03-12T11:43:04.294Z,11.10
2019-03-12T11:45:36.886Z,11.39
2019-03-12T11:48:05.312Z,11.10
2019-03-12T11:50:34.820Z,11.34
2019-03-12T11:53:04.470Z,12.05
2019-03-12T11:55:34.234Z,11.87
2019-03-12T11:58:03.845Z,12.12
2019-03-12T12:00:38.740Z,12.27
2019-03-12T12:03:08.307Z,12.61
2019-03-12T12:05:37.818Z,11.94
2019-03-12T12:08:07.322Z,12.08
2019-03-12T12:10:36.808Z,12.05
2019-03-12T12:13:06.402Z,11.93
2019-03-12T12:15:36.008Z,11.79
2019-03-12T12:18:06.625Z,11.30
2019-03-12T12:20:36.212Z,11.35
2019-03-12T12:23:05.870Z,11.39
2019-03-12T12:25:35.425Z,10.98
2019-03-12T12:28:05.036Z,11.15
2019-03-12T12:30:35.026Z,11.16
2019-03-12T12:33:04.675Z,11.30
2019-03-12T12:35:34.296Z,11.84
2019-03-12T12:38:04.111Z,11.33
2019-03-12T12:40:33.743Z,11.77
2019-03-12T12:43:03.247Z,12.00
2019-03-12T12:45:36.044Z,12.00
2019-03-12T12:48:05.948Z,11.77
2019-03-12T12:50:35.427Z,12.15
2019-03-12T12:53:05.097Z,11.86
2019-03-12T12:55:34.670Z,11.76
2019-03-12T12:58:04.333Z,11.62
2019-03-12T13:00:34.696Z,11.15
2019-03-12T13:03:04.291Z,11.59
2019-03-12T13:05:33.865Z,11.69
2019-03-12T13:08:03.495Z,11.84
2019-03-12T13:10:35.049Z,11.65
2019-03-12T13:13:04.624Z,11.76
2019-03-12T13:15:34.249Z,11.57
2019-03-12T13:18:03.934Z,11.70
2019-03-12T13:20:33.558Z,11.29
2019-03-12T13:23:03.083Z,11.40
2019-03-12T13:25:32.669Z,11.36
2019-03-12T13:28:02.155Z,11.39
2019-03-12T13:30:31.809Z,11.44
2019-03-12T13:33:01.298Z,11.72
2019-03-12T13:35:30.891Z,11.65
2019-03-12T13:38:00.547Z,11.71
2019-03-12T13:40:30.153Z,11.54
2019-03-12T13:42:59.720Z,11.67
2019-03-12T13:45:33.841Z,11.67
2019-03-12T13:48:03.549Z,12.02
2019-03-12T13:50:33.432Z,11.98
2019-03-12T13:53:02.955Z,11.79
2019-03-12T13:55:32.538Z,11.84
2019-03-12T13:58:02.095Z,11.95
2019-03-12T14:00:33.442Z,12.03
2019-03-12T14:03:03.027Z,11.43
2019-03-12T14:05:32.708Z,11.51
2019-03-12T14:08:02.303Z,11.79
2019-03-12T14:10:31.830Z,11.76
2019-03-12T14:13:01.514Z,11.66
2019-03-12T14:15:39.176Z,11.69
2019-03-12T14:18:08.829Z,11.84
2019-03-12T14:21:03.357Z,11.47
2019-03-12T14:23:43.506Z,11.63
2019-03-12T14:26:14.438Z,11.37
2019-03-12T14:28:44.180Z,11.47
2019-03-12T14:31:13.871Z,11.42
2019-03-12T14:33:43.699Z,11.35
2019-03-12T14:36:13.367Z,11.54
2019-03-12T14:38:42.893Z,11.44
2019-03-12T14:41:12.455Z,11.41
2019-03-12T14:43:42.118Z,11.29
2019-03-12T14:46:11.916Z,11.48
2019-03-12T14:48:53.852Z,11.44
2019-03-12T14:51:33.912Z,11.39
2019-03-12T14:54:14.967Z,11.33
2019-03-12T14:56:44.679Z,11.28
2019-03-12T14:59:14.628Z,11.25
2019-03-12T15:01:44.127Z,11.20
2019-03-12T15:04:15.054Z,11.27
2019-03-12T15:06:44.973Z,11.14
2019-03-12T15:09:15.817Z,11.17
2019-03-12T15:11:45.573Z,11.16
2019-03-12T15:14:15.068Z,11.17
2019-03-12T15:16:44.570Z,11.17
2019-03-12T15:19:14.057Z,11.09
2019-03-12T15:21:43.568Z,11.23
2019-03-12T15:24:13.151Z,11.24
2019-03-12T15:26:42.661Z,11.12
2019-03-12T15:29:12.323Z,11.22
2019-03-12T15:31:41.835Z,11.10
2019-03-12T15:34:11.337Z,11.34
2019-03-12T15:36:40.953Z,11.29
2019-03-12T15:39:10.569Z,11.18
2019-03-12T15:41:40.101Z,11.19
2019-03-12T15:44:09.662Z,11.12
2019-03-12T15:46:39.256Z,11.04
2019-03-12T15:49:08.761Z,11.01
2019-03-12T15:51:38.345Z,11.03
2019-03-12T15:54:07.855Z,11.13
2019-03-12T15:56:37.412Z,11.07
2019-03-12T15:59:06.931Z,11.15
2019-03-12T16:01:36.534Z,11.06
2019-03-12T16:04:06.029Z,11.07
2019-03-12T16:06:35.671Z,10.99
2019-03-12T16:09:07.019Z,11.04
2019-03-12T16:11:36.725Z,10.99
2019-03-12T16:14:06.651Z,11.00
2019-03-12T16:16:36.260Z,11.04
2019-03-12T16:19:05.834Z,11.04
2019-03-12T16:21:35.475Z,11.14
2019-03-12T16:24:05.201Z,11.12
2019-03-12T16:26:34.710Z,11.09
2019-03-12T16:29:04.375Z,11.03
2019-03-12T16:31:33.877Z,11.01
2019-03-12T16:34:03.508Z,11.03
2019-03-12T16:36:33.087Z,10.97
2019-03-12T16:39:04.644Z,10.98
2019-03-12T16:41:34.163Z,11.05
2019-03-12T16:44:03.729Z,11.06
2019-03-12T16:46:33.332Z,11.05
2019-03-12T16:49:02.811Z,11.04
2019-03-12T16:51:32.342Z,10.85
2019-03-12T16:54:05.110Z,11.06
2019-03-12T16:56:44.502Z,11.06
2019-03-12T16:59:04.366Z,10.91
2019-03-12T17:01:33.881Z,10.92
2019-03-12T17:04:03.429Z,10.91
2019-03-12T17:06:33.000Z,10.90
2019-03-12T17:09:02.494Z,10.86
2019-03-12T17:11:32.016Z,10.81
2019-03-12T17:14:01.492Z,10.83
2019-03-12T17:16:31.016Z,10.78
2019-03-12T17:19:00.509Z,10.85
2019-03-12T17:21:32.571Z,10.84
2019-03-12T17:24:01.399Z,10.81
2019-03-12T17:26:30.932Z,10.84
2019-03-12T17:29:00.497Z,10.70
2019-03-12T17:31:30.004Z,10.76
2019-03-12T17:33:59.541Z,10.79
2019-03-12T17:36:29.015Z,10.70
2019-03-12T17:38:58.550Z,10.78
2019-03-12T17:41:28.127Z,10.80
2019-03-12T17:43:58.141Z,10.73
2019-03-12T17:46:27.625Z,10.75
2019-03-12T17:48:57.225Z,10.76
2019-03-12T17:51:26.834Z,10.80
2019-03-12T17:53:56.320Z,10.86
2019-03-12T17:56:25.883Z,10.83
2019-03-12T17:58:55.401Z,10.85
2019-03-12T18:01:29.588Z,10.83
2019-03-12T18:03:56.224Z,10.88
2019-03-12T18:06:45.124Z,10.88
2019-03-12T18:09:14.952Z,10.98
2019-03-12T18:11:44.447Z,11.01
2019-03-12T18:14:14.032Z,10.92
2019-03-12T18:16:43.533Z,10.87
2019-03-12T18:19:13.148Z,10.87
2019-03-12T18:21:42.657Z,10.96
2019-03-12T18:24:12.276Z,10.89
2019-03-12T18:26:41.785Z,10.99
2019-03-12T18:29:11.328Z,10.99
2019-03-12T18:31:41.031Z,10.98
2019-03-12T18:34:10.601Z,10.95
2019-03-12T18:36:40.136Z,10.97
2019-03-12T18:39:11.146Z,10.98
2019-03-12T18:41:40.687Z,10.99
2019-03-12T18:44:10.313Z,10.99
2019-03-12T18:46:43.049Z,11.01
2019-03-12T18:49:11.236Z,11.09
2019-03-12T18:51:40.714Z,11.00
2019-03-12T18:54:10.316Z,11.02
2019-03-12T18:56:39.865Z,11.02
2019-03-12T18:59:09.384Z,11.05
2019-03-12T19:01:38.866Z,11.10
2019-03-12T19:04:08.401Z,11.05
2019-03-12T19:06:37.900Z,11.01
2019-03-12T19:09:07.851Z,11.10
2019-03-12T19:11:37.815Z,11.12
2019-03-12T19:14:07.359Z,11.22
2019-03-12T19:16:36.891Z,11.09
2019-03-12T19:19:06.839Z,10.99
2019-03-12T19:21:36.326Z,11.10
2019-03-12T19:24:05.928Z,11.08
2019-03-12T19:26:35.482Z,10.75
2019-03-12T19:29:05.083Z,10.54
2019-03-12T19:31:36.206Z,10.24
2019-03-12T19:34:06.877Z,10.03
2019-03-12T19:36:36.534Z,9.98
2019-03-12T19:39:08.932Z,9.98
2019-03-12T19:41:38.530Z,10.07
2019-03-12T19:44:08.107Z,10.13
2019-03-12T19:46:37.639Z,10.13
2019-03-12T19:49:07.208Z,10.23
2019-03-12T19:51:36.768Z,10.29
2019-03-12T19:54:06.470Z,10.24
2019-03-12T19:56:36.057Z,10.39
2019-03-12T19:59:06.540Z,10.51
2019-03-12T20:01:36.191Z,10.63
2019-03-12T20:04:05.872Z,10.70
2019-03-12T20:06:35.649Z,10.58
2019-03-12T20:09:06.324Z,10.61
2019-03-12T20:12:18.147Z,10.81
2019-03-12T20:15:27.410Z,10.97
2019-03-12T20:18:13.794Z,10.82
2019-03-12T20:20:50.558Z,10.78
2019-03-12T20:23:53.434Z,10.81
2019-03-12T20:27:00.529Z,10.92
2019-03-12T20:30:06.334Z,10.94
2019-03-12T20:33:18.407Z,10.96
2019-03-12T20:36:42.867Z,10.89
2019-03-12T20:39:49.077Z,10.86
2019-03-12T20:43:05.044Z,10.86
2019-03-12T20:46:29.245Z,10.74
2019-03-12T20:49:30.474Z,10.62
2019-03-12T20:52:25.772Z,10.74
2019-03-12T20:55:21.365Z,10.71
2019-03-12T20:58:16.533Z,10.67
2019-03-12T21:01:32.928Z,10.72
2019-03-12T21:04:19.142Z,10.71
2019-03-12T21:07:18.437Z,10.70
2019-03-12T21:10:28.963Z,10.49
2019-03-12T21:13:24.426Z,10.51
2019-03-12T21:16:19.561Z,10.47
2019-03-12T21:19:36.394Z,10.11
2019-03-12T21:22:36.220Z,9.84
2019-03-12T21:25:15.966Z,9.38
2019-03-12T21:28:11.054Z,8.89
2019-03-12T21:30:40.932Z,8.77
2019-03-12T21:33:15.269Z,7.71
2019-03-12T21:35:41.705Z,7.24
2019-03-12T21:38:11.326Z,6.73
2019-03-12T21:40:40.793Z,6.65
2019-03-12T21:43:10.377Z,6.57
2019-03-12T21:45:40.021Z,6.52
2019-03-12T21:48:09.663Z,6.25
2019-03-12T21:50:39.236Z,6.27
2019-03-12T21:53:08.954Z,6.23
2019-03-12T21:55:38.532Z,6.15
2019-03-12T21:58:08.260Z,6.17
2019-03-12T22:00:37.834Z,6.13
2019-03-12T22:03:07.503Z,6.11
2019-03-12T22:05:36.984Z,6.19
2019-03-12T22:08:06.496Z,6.27
2019-03-12T22:10:36.044Z,6.26
2019-03-12T22:13:05.637Z,6.24
2019-03-12T22:15:35.223Z,6.17
2019-03-12T22:18:04.797Z,6.28
2019-03-12T22:20:34.354Z,6.29
2019-03-12T22:23:11.325Z,6.30
2019-03-12T22:25:40.845Z,6.43
2019-03-12T22:28:10.328Z,6.34
2019-03-12T22:30:39.880Z,6.34
2019-03-12T22:33:09.533Z,6.34
2019-03-12T22:35:39.105Z,6.23
2019-03-12T22:38:08.601Z,6.43
2019-03-12T22:40:38.087Z,6.42
2019-03-12T22:43:07.584Z,6.42
2019-03-12T22:45:37.076Z,6.41
2019-03-12T22:48:06.672Z,6.51
2019-03-12T22:50:36.157Z,6.39
2019-03-12T22:53:05.693Z,6.49
2019-03-12T22:55:35.199Z,6.51
2019-03-12T22:58:04.765Z,6.48
2019-03-12T23:00:55.088Z,6.42
2019-03-12T23:03:24.962Z,6.23
2019-03-12T23:05:54.531Z,6.12
2019-03-12T23:08:24.278Z,6.15
2019-03-12T23:10:53.855Z,6.11
2019-03-12T23:13:24.648Z,6.04
2019-03-12T23:15:54.225Z,6.04
2019-03-12T23:18:23.804Z,6.09
2019-03-12T23:20:53.358Z,6.07
2019-03-12T23:23:22.942Z,5.93
2019-03-12T23:25:52.650Z,5.65
2019-03-12T23:28:22.212Z,5.79
2019-03-12T23:30:51.703Z,5.94
2019-03-12T23:33:21.363Z,5.87
2019-03-12T23:35:50.935Z,5.92
2019-03-12T23:38:20.487Z,5.94
2019-03-12T23:40:50.089Z,6.05
2019-03-12T23:43:19.566Z,6.20
2019-03-12T23:45:49.054Z,6.11
2019-03-12T23:48:18.772Z,6.11
2019-03-12T23:50:48.456Z,6.09
2019-03-12T23:53:17.958Z,6.11
2019-03-12T23:55:47.589Z,6.12
2019-03-12T23:58:17.153Z,5.97
